Time,TemperatureF,DewpointF,PressureIn,WindDirection,WindDirectionDegrees,WindSpeedMPH,WindSpeedGustMPH,Humidity,HourlyPrecipIn,Conditions,Clouds,dailyrainin,SolarRadiationWatts/m^2,SoftwareType,DateUTC
2013-06-19 00:00:00,68.1,67.2,29.89,NNE,23,0.0,0.0,97,0.00,,,0.55,0,Wunderground v.1.15,2013-06-19 05:00:00,
2013-06-19 00:10:00,68.2,67.3,29.89,NNE,23,0.0,0.0,97,0.00,,,0.55,0,Wunderground v.1.15,2013-06-19 05:10:00,
2013-06-19 00:20:00,67.9,67.0,29.89,NNE,23,0.0,0.0,97,0.00,,,0.55,0,Wunderground v.1.15,2013-06-19 05:20:00,
2013-06-19 00:30:00,67.5,66.6,29.89,NNE,23,0.0,0.0,97,0.00,,,0.55,0,Wunderground v.1.15,2013-06-19 05:30:00,
2013-06-19 00:40:00,67.5,66.6,29.89,NNE,23,0.0,0.0,97,0.00,,,0.55,0,Wunderground v.1.15,2013-06-19 05:40:00,
2013-06-19 00:50:00,67.5,66.6,29.89,NNE,23,0.0,0.0,97,0.00,,,0.00,0,Wunderground v.1.15,2013-06-19 05:50:00,
2013-06-19 01:00:00,67.4,66.5,29.89,NNE,23,0.0,0.0,97,0.00,,,0.00,0,Wunderground v.1.15,2013-06-19 06:00:00,
2013-06-19 01:10:00,67.5,66.6,29.89,NNE,23,0.0,0.0,97,0.00,,,0.00,0,Wunderground v.1.15,2013-06-19 06:10:00,
2013-06-19 01:20:00,67.5,66.6,29.89,NNE,23,0.0,0.0,97,0.00,,,0.00,0,Wunderground v.1.15,2013-06-19 06:20:00,
2013-06-19 01:30:00,67.4,66.8,29.89,NNE,23,0.0,0.0,98,0.00,,,0.00,0,Wunderground v.1.15,2013-06-19 06:30:00,
2013-06-19 01:40:00,67.1,66.2,29.89,NNE,23,0.0,0.0,97,0.00,,,0.00,0,Wunderground v.1.15,2013-06-19 06:40:00,
2013-06-19 01:50:00,67.0,66.1,29.89,NNE,23,0.0,0.0,97,0.00,,,0.00,0,Wunderground v.1.15,2013-06-19 06:50:00,
2013-06-19 02:00:00,66.9,66.0,29.89,NNE,23,0.0,0.0,97,0.00,,,0.00,0,Wunderground v.1.15,2013-06-19 07:00:00,
2013-06-19 02:10:00,66.7,65.8,29.89,NNE,23,0.0,0.0,97,0.00,,,0.00,0,Wunderground v.1.15,2013-06-19 07:10:00,
2013-06-19 02:20:00,66.5,65.9,29.89,NNE,23,0.0,0.0,98,0.00,,,0.00,0,Wunderground v.1.15,2013-06-19 07:20:00,
2013-06-19 02:30:00,65.9,65.0,29.89,NNE,23,0.0,0.0,97,0.00,,,0.00,0,Wunderground v.1.15,2013-06-19 07:30:00,
2013-06-19 02:40:00,65.8,64.9,29.89,NNE,23,0.0,0.0,97,0.00,,,0.00,0,Wunderground v.1.15,2013-06-19 07:40:00,
2013-06-19 02:50:00,65.5,64.6,29.89,NNE,23,0.0,0.0,97,0.00,,,0.00,0,Wunderground v.1.15,2013-06-19 07:50:00,
2013-06-19 03:00:00,65.4,64.8,29.89,NNE,23,0.0,0.0,98,0.00,,,0.00,0,Wunderground v.1.15,2013-06-19 08:00:00,
2013-06-19 03:10:00,65.3,64.7,29.89,NNE,23,0.0,0.0,98,0.00,,,0.00,0,Wunderground v.1.15,2013-06-19 08:10:00,
2013-06-19 03:20:00,65.2,64.6,29.89,NNE,23,0.0,0.0,98,0.00,,,0.00,0,Wunderground v.1.15,2013-06-19 08:20:00,
2013-06-19 03:30:00,65.0,64.4,29.89,NNE,23,0.0,0.0,98,0.00,,,0.00,0,Wunderground v.1.15,2013-06-19 08:30:00,
2013-06-19 03:40:00,64.7,64.1,29.89,NNE,23,0.0,0.0,98,0.00,,,0.00,0,Wunderground v.1.15,2013-06-19 08:40:00,
2013-06-19 03:50:00,64.5,63.9,29.89,NNE,23,0.0,0.0,98,0.00,,,0.00,0,Wunderground v.1.15,2013-06-19 08:50:00,
2013-06-19 04:00:00,64.3,63.7,29.89,NNE,23,0.0,0.0,98,0.00,,,0.00,0,Wunderground v.1.15,2013-06-19 09:00:00,
2013-06-19 04:10:00,64.4,63.8,29.90,NNE,23,0.0,1.0,98,0.00,,,0.00,0,Wunderground v.1.15,2013-06-19 09:10:00,
2013-06-19 04:20:00,64.5,63.9,29.90,NNE,23,0.0,1.0,98,0.00,,,0.00,0,Wunderground v.1.15,2013-06-19 09:20:00,
2013-06-19 04:30:00,64.4,63.8,29.90,NNE,23,0.0,1.0,98,0.00,,,0.00,0,Wunderground v.1.15,2013-06-19 09:30:00,
2013-06-19 04:40:00,64.4,63.8,29.90,NNE,23,0.0,1.0,98,0.00,,,0.00,0,Wunderground v.1.15,2013-06-19 09:40:00,
2013-06-19 04:50:00,64.2,63.6,29.90,NNE,23,0.0,1.0,98,0.00,,,0.00,0,Wunderground v.1.15,2013-06-19 09:50:00,
2013-06-19 05:00:00,64.1,63.5,29.91,NNE,23,0.0,0.0,98,0.00,,,0.00,0,Wunderground v.1.15,2013-06-19 10:00:00,
2013-06-19 05:10:00,64.1,63.5,29.91,NNE,23,0.0,0.0,98,0.00,,,0.00,0,Wunderground v.1.15,2013-06-19 10:10:00,
2013-06-19 05:20:00,64.1,63.5,29.91,NNE,23,0.0,0.0,98,0.00,,,0.00,0,Wunderground v.1.15,2013-06-19 10:20:00,
2013-06-19 05:30:00,64.0,63.4,29.92,NNE,23,0.0,0.0,98,0.00,,,0.00,0,Wunderground v.1.15,2013-06-19 10:30:00,
2013-06-19 05:40:00,64.0,63.4,29.92,NNE,23,0.0,0.0,98,0.00,,,0.00,0,Wunderground v.1.15,2013-06-19 10:40:00,
2013-06-19 05:50:00,63.8,63.2,29.92,NNE,23,0.0,0.0,98,0.00,,,0.00,7,Wunderground v.1.15,2013-06-19 10:50:00,
2013-06-19 06:00:00,64.0,63.4,29.93,NNE,23,0.0,0.0,98,0.00,,,0.00,14,Wunderground v.1.15,2013-06-19 11:00:00,
2013-06-19 06:10:00,64.1,63.5,29.92,NNE,23,0.0,1.0,98,0.00,,,0.00,26,Wunderground v.1.15,2013-06-19 11:10:00,
2013-06-19 06:20:00,64.3,64.0,29.93,NNE,23,0.0,1.0,99,0.00,,,0.00,21,Wunderground v.1.15,2013-06-19 11:20:00,
2013-06-19 06:30:00,64.1,63.8,29.94,NNE,23,0.0,1.0,99,0.00,,,0.00,42,Wunderground v.1.15,2013-06-19 11:30:00,
2013-06-19 06:40:00,64.6,64.3,29.93,NNE,23,0.0,1.0,99,0.00,,,0.00,84,Wunderground v.1.15,2013-06-19 11:40:00,
2013-06-19 06:50:00,65.4,65.1,29.94,NNE,23,0.0,1.0,99,0.00,,,0.00,142,Wunderground v.1.15,2013-06-19 11:50:00,
2013-06-19 07:00:00,66.1,65.8,29.94,NNE,23,0.0,0.0,99,0.00,,,0.00,185,Wunderground v.1.15,2013-06-19 12:00:00,
2013-06-19 07:10:00,66.7,66.4,29.94,NNE,23,0.0,1.0,99,0.00,,,0.00,216,Wunderground v.1.15,2013-06-19 12:10:00,
2013-06-19 07:20:00,66.7,66.4,29.95,NNE,23,0.0,1.0,99,0.00,,,0.00,246,Wunderground v.1.15,2013-06-19 12:20:00,
2013-06-19 07:30:00,67.4,67.1,29.94,NNE,23,0.0,1.0,99,0.00,,,0.00,283,Wunderground v.1.15,2013-06-19 12:30:00,
2013-06-19 07:40:00,68.3,68.0,29.95,NNE,23,0.0,1.0,99,0.00,,,0.00,320,Wunderground v.1.15,2013-06-19 12:40:00,
2013-06-19 07:50:00,69.3,68.7,29.94,NNE,21,0.0,1.0,98,0.00,,,0.00,359,Wunderground v.1.15,2013-06-19 12:50:00,
2013-06-19 08:00:00,70.7,69.5,29.95,NNE,21,0.0,0.0,96,0.00,,,0.00,387,Wunderground v.1.15,2013-06-19 13:00:00,
2013-06-19 08:10:00,72.1,70.0,29.95,North,5,0.0,2.0,93,0.00,,,0.00,413,Wunderground v.1.15,2013-06-19 13:10:00,
2013-06-19 08:20:00,73.4,70.6,29.95,North,5,0.0,2.0,91,0.00,,,0.00,443,Wunderground v.1.15,2013-06-19 13:20:00,
2013-06-19 08:30:00,74.1,71.0,29.96,North,5,0.0,2.0,90,0.00,,,0.00,468,Wunderground v.1.15,2013-06-19 13:30:00,
2013-06-19 08:40:00,75.2,70.4,29.96,North,5,0.0,2.0,85,0.00,,,0.00,501,Wunderground v.1.15,2013-06-19 13:40:00,
2013-06-19 08:50:00,76.6,70.7,29.96,North,5,0.0,2.0,82,0.00,,,0.00,531,Wunderground v.1.15,2013-06-19 13:50:00,
2013-06-19 09:00:00,78.2,71.9,29.96,North,5,0.0,0.0,81,0.00,,,0.00,557,Wunderground v.1.15,2013-06-19 14:00:00,
2013-06-19 09:10:00,78.7,69.7,29.96,ESE,105,1.0,1.0,74,0.00,,,0.00,584,Wunderground v.1.15,2013-06-19 14:10:00,
2013-06-19 09:20:00,79.4,69.6,29.97,North,360,1.0,3.0,72,0.00,,,0.00,617,Wunderground v.1.15,2013-06-19 14:20:00,
2013-06-19 09:30:00,79.9,68.8,29.97,ESE,114,1.0,1.0,69,0.00,,,0.00,645,Wunderground v.1.15,2013-06-19 14:30:00,
2013-06-19 09:40:00,79.8,70.0,29.97,NE,38,1.0,3.0,72,0.00,,,0.00,459,Wunderground v.1.15,2013-06-19 14:40:00,
2013-06-19 09:50:00,80.1,69.0,29.97,ESE,102,1.0,3.0,69,0.00,,,0.00,684,Wunderground v.1.15,2013-06-19 14:50:00,
2013-06-19 10:00:00,80.4,68.0,29.97,ESE,115,1.0,1.0,66,0.00,,,0.00,700,Wunderground v.1.15,2013-06-19 15:00:00,
2013-06-19 10:10:00,80.8,69.2,29.97,NE,36,1.0,1.0,68,0.00,,,0.00,721,Wunderground v.1.15,2013-06-19 15:10:00,
2013-06-19 10:20:00,81.2,70.9,29.97,NE,44,1.0,1.0,71,0.00,,,0.00,747,Wunderground v.1.15,2013-06-19 15:20:00,
2013-06-19 10:30:00,81.7,67.9,29.97,NE,56,1.0,5.0,63,0.00,,,0.00,775,Wunderground v.1.15,2013-06-19 15:30:00,
2013-06-19 10:40:00,82.2,68.8,29.97,NE,47,1.0,1.0,64,0.00,,,0.00,786,Wunderground v.1.15,2013-06-19 15:40:00,
2013-06-19 10:50:00,82.6,69.2,29.98,NW,313,1.0,5.0,64,0.00,,,0.00,816,Wunderground v.1.15,2013-06-19 15:50:00,
2013-06-19 11:00:00,82.4,67.6,29.98,East,87,1.0,3.0,61,0.00,,,0.00,831,Wunderground v.1.15,2013-06-19 16:00:00,
2013-06-19 11:10:00,82.3,67.5,29.98,NNE,33,2.0,5.0,61,0.00,,,0.00,837,Wunderground v.1.15,2013-06-19 16:10:00,
2013-06-19 11:20:00,82.6,67.8,29.98,NE,55,1.0,5.0,61,0.00,,,0.00,851,Wunderground v.1.15,2013-06-19 16:20:00,
2013-06-19 11:30:00,82.2,68.3,29.98,NE,34,2.0,2.0,63,0.00,,,0.00,868,Wunderground v.1.15,2013-06-19 16:30:00,
2013-06-19 11:40:00,82.2,66.9,29.98,ENE,67,1.0,5.0,60,0.00,,,0.00,937,Wunderground v.1.15,2013-06-19 16:40:00,
2013-06-19 11:50:00,82.1,68.7,29.97,NE,51,1.0,5.0,64,0.00,,,0.00,963,Wunderground v.1.15,2013-06-19 16:50:00,
2013-06-19 12:00:00,82.3,67.5,29.97,NE,51,2.0,2.0,61,0.00,,,0.00,986,Wunderground v.1.15,2013-06-19 17:00:00,
2013-06-19 12:10:00,82.2,67.9,29.97,NE,34,0.0,7.0,62,0.00,,,0.00,928,Wunderground v.1.15,2013-06-19 17:10:00,
2013-06-19 12:20:00,83.0,69.1,29.97,ESE,104,1.0,7.0,63,0.00,,,0.00,972,Wunderground v.1.15,2013-06-19 17:20:00,
2013-06-19 12:30:00,83.0,67.7,29.97,NE,40,2.0,2.0,60,0.00,,,0.00,933,Wunderground v.1.15,2013-06-19 17:30:00,
2013-06-19 12:40:00,83.5,68.2,29.97,NW,323,1.0,1.0,60,0.00,,,0.00,933,Wunderground v.1.15,2013-06-19 17:40:00,
2013-06-19 12:50:00,83.9,67.5,29.96,West,281,1.0,1.0,58,0.00,,,0.00,976,Wunderground v.1.15,2013-06-19 17:50:00,
2013-06-19 13:00:00,83.9,68.5,29.97,ESE,123,1.0,1.0,60,0.00,,,0.00,998,Wunderground v.1.15,2013-06-19 18:00:00,
2013-06-19 13:10:00,84.4,68.5,29.96,East,84,1.0,1.0,59,0.00,,,0.00,306,Wunderground v.1.15,2013-06-19 18:10:00,
2013-06-19 13:20:00,83.9,68.5,29.96,East,79,0.0,5.0,60,0.00,,,0.00,195,Wunderground v.1.15,2013-06-19 18:20:00,
2013-06-19 13:30:00,83.2,67.4,29.96,East,80,0.0,5.0,59,0.00,,,0.00,1092,Wunderground v.1.15,2013-06-19 18:30:00,
2013-06-19 13:40:00,82.9,67.6,29.95,SSW,206,1.0,1.0,60,0.00,,,0.00,316,Wunderground v.1.15,2013-06-19 18:40:00,
2013-06-19 13:50:00,83.6,69.7,29.95,ENE,58,0.0,5.0,63,0.00,,,0.00,954,Wunderground v.1.15,2013-06-19 18:50:00,
2013-06-19 14:00:00,84.8,67.4,29.95,NNW,330,1.0,1.0,56,0.00,,,0.00,983,Wunderground v.1.15,2013-06-19 19:00:00,
2013-06-19 14:10:00,85.3,68.3,29.95,East,84,1.0,4.0,57,0.00,,,0.00,979,Wunderground v.1.15,2013-06-19 19:10:00,
2013-06-19 14:20:00,84.8,69.4,29.95,North,11,1.0,1.0,60,0.00,,,0.00,257,Wunderground v.1.15,2013-06-19 19:20:00,
2013-06-19 14:30:00,84.5,69.6,29.95,NW,306,0.0,4.0,61,0.00,,,0.00,239,Wunderground v.1.15,2013-06-19 19:30:00,
2013-06-19 14:40:00,84.8,69.9,29.94,WSW,245,1.0,1.0,61,0.00,,,0.00,935,Wunderground v.1.15,2013-06-19 19:40:00,
2013-06-19 14:50:00,85.1,69.2,29.94,WSW,245,0.0,4.0,59,0.00,,,0.00,223,Wunderground v.1.15,2013-06-19 19:50:00,
2013-06-19 15:00:00,85.3,70.3,29.94,WSW,245,0.0,0.0,61,0.00,,,0.00,830,Wunderground v.1.15,2013-06-19 20:00:00,
2013-06-19 15:10:00,85.8,68.8,29.94,WNW,296,1.0,5.0,57,0.00,,,0.00,919,Wunderground v.1.15,2013-06-19 20:10:00,
2013-06-19 15:20:00,86.7,73.1,29.94,WNW,302,1.0,5.0,64,0.00,,,0.00,835,Wunderground v.1.15,2013-06-19 20:20:00,
2013-06-19 15:30:00,86.8,69.2,29.94,WNW,292,1.0,1.0,56,0.00,,,0.00,773,Wunderground v.1.15,2013-06-19 20:30:00,
2013-06-19 15:40:00,86.4,71.4,29.94,WNW,292,1.0,5.0,61,0.00,,,0.00,791,Wunderground v.1.15,2013-06-19 20:40:00,
2013-06-19 15:50:00,86.2,67.6,29.94,West,269,2.0,5.0,54,0.00,,,0.00,809,Wunderground v.1.15,2013-06-19 20:50:00,
2013-06-19 16:00:00,86.6,68.0,29.94,NE,55,1.0,1.0,54,0.00,,,0.00,782,Wunderground v.1.15,2013-06-19 21:00:00,
2013-06-19 16:10:00,86.8,68.2,29.94,NNE,23,1.0,1.0,54,0.00,,,0.00,719,Wunderground v.1.15,2013-06-19 21:10:00,
2013-06-19 16:20:00,86.2,70.2,29.93,NE,52,1.0,4.0,59,0.00,,,0.00,729,Wunderground v.1.15,2013-06-19 21:20:00,
2013-06-19 16:30:00,85.1,70.6,29.94,NE,52,1.0,1.0,62,0.00,,,0.00,269,Wunderground v.1.15,2013-06-19 21:30:00,
2013-06-19 16:40:00,84.0,72.3,29.93,NE,52,0.0,4.0,68,0.00,,,0.00,578,Wunderground v.1.15,2013-06-19 21:40:00,
2013-06-19 16:50:00,84.7,66.2,29.94,NE,52,0.0,4.0,54,0.00,,,0.00,531,Wunderground v.1.15,2013-06-19 21:50:00,
2013-06-19 17:00:00,85.4,69.9,29.94,NW,309,0.0,0.0,60,0.00,,,0.00,104,Wunderground v.1.15,2013-06-19 22:00:00,
2013-06-19 17:10:00,85.6,70.1,29.93,NW,309,0.0,5.0,60,0.00,,,0.00,497,Wunderground v.1.15,2013-06-19 22:10:00,
2013-06-19 17:20:00,86.2,67.1,29.93,NW,309,0.0,5.0,53,0.00,,,0.00,269,Wunderground v.1.15,2013-06-19 22:20:00,
2013-06-19 17:30:00,86.9,68.8,29.93,NW,305,0.0,5.0,55,0.00,,,0.00,62,Wunderground v.1.15,2013-06-19 22:30:00,
2013-06-19 17:40:00,87.3,69.7,29.93,NW,305,0.0,5.0,56,0.00,,,0.00,47,Wunderground v.1.15,2013-06-19 22:40:00,
2013-06-19 17:50:00,87.2,69.1,29.93,NW,305,0.0,5.0,55,0.00,,,0.00,49,Wunderground v.1.15,2013-06-19 22:50:00,
2013-06-19 18:00:00,87.1,70.0,29.93,NW,305,0.0,0.0,57,0.00,,,0.00,46,Wunderground v.1.15,2013-06-19 23:00:00,
2013-06-19 18:10:00,86.9,68.8,29.93,NW,305,0.0,3.0,55,0.00,,,0.00,33,Wunderground v.1.15,2013-06-19 23:10:00,
2013-06-19 18:20:00,86.7,71.2,29.93,NW,305,0.0,3.0,60,0.00,,,0.00,39,Wunderground v.1.15,2013-06-19 23:20:00,
2013-06-19 18:30:00,86.6,71.5,29.94,NW,305,0.0,3.0,61,0.00,,,0.00,35,Wunderground v.1.15,2013-06-19 23:30:00,
2013-06-19 18:40:00,86.1,70.6,29.94,NW,305,0.0,3.0,60,0.00,,,0.00,33,Wunderground v.1.15,2013-06-19 23:40:00,
2013-06-19 18:50:00,84.7,70.7,29.94,NW,305,0.0,3.0,63,0.00,,,0.00,32,Wunderground v.1.15,2013-06-19 23:50:00,
2013-06-19 19:00:00,83.1,71.0,29.94,NW,305,0.0,0.0,67,0.00,,,0.00,30,Wunderground v.1.15,2013-06-20 00:00:00,
2013-06-19 19:10:00,81.5,71.2,29.94,NW,305,0.0,1.0,71,0.00,,,0.00,26,Wunderground v.1.15,2013-06-20 00:10:00,
2013-06-19 19:20:00,80.5,72.2,29.94,NW,305,0.0,1.0,76,0.00,,,0.00,25,Wunderground v.1.15,2013-06-20 00:20:00,
2013-06-19 19:30:00,79.5,71.7,29.94,NW,305,0.0,1.0,77,0.00,,,0.00,21,Wunderground v.1.15,2013-06-20 00:30:00,
2013-06-19 19:40:00,78.4,71.7,29.94,NW,305,0.0,1.0,80,0.00,,,0.00,16,Wunderground v.1.15,2013-06-20 00:40:00,
2013-06-19 19:50:00,77.3,71.0,29.95,NW,305,0.0,1.0,81,0.00,,,0.00,11,Wunderground v.1.15,2013-06-20 00:50:00,
2013-06-19 20:00:00,76.5,70.6,29.95,North,355,0.0,0.0,82,0.00,,,0.00,5,Wunderground v.1.15,2013-06-20 01:00:00,
2013-06-19 20:10:00,75.6,69.0,29.95,North,355,0.0,0.0,80,0.00,,,0.00,0,Wunderground v.1.15,2013-06-20 01:10:00,
2013-06-19 20:20:00,75.0,69.1,29.95,North,355,0.0,0.0,82,0.00,,,0.00,0,Wunderground v.1.15,2013-06-20 01:20:00,
2013-06-19 20:30:00,74.4,68.9,29.95,North,355,0.0,0.0,83,0.00,,,0.00,0,Wunderground v.1.15,2013-06-20 01:30:00,
2013-06-19 20:40:00,73.8,69.3,29.95,North,355,0.0,0.0,86,0.00,,,0.00,0,Wunderground v.1.15,2013-06-20 01:40:00,
2013-06-19 20:50:00,73.0,68.2,29.95,North,355,0.0,0.0,85,0.00,,,0.00,0,Wunderground v.1.15,2013-06-20 01:50:00,
2013-06-19 21:00:00,72.6,68.8,29.95,North,355,0.0,0.0,88,0.00,,,0.00,0,Wunderground v.1.15,2013-06-20 02:00:00,
2013-06-19 21:10:00,72.3,69.2,29.96,North,355,0.0,0.0,90,0.00,,,0.00,0,Wunderground v.1.15,2013-06-20 02:10:00,
2013-06-19 21:20:00,71.9,68.8,29.96,North,355,0.0,0.0,90,0.00,,,0.00,0,Wunderground v.1.15,2013-06-20 02:20:00,
2013-06-19 21:30:00,71.5,68.4,29.97,North,355,0.0,0.0,90,0.00,,,0.00,0,Wunderground v.1.15,2013-06-20 02:30:00,
2013-06-19 21:40:00,71.2,68.4,29.97,North,355,0.0,0.0,91,0.00,,,0.00,0,Wunderground v.1.15,2013-06-20 02:40:00,
2013-06-19 21:50:00,71.0,68.2,29.97,North,355,0.0,0.0,91,0.00,,,0.00,0,Wunderground v.1.15,2013-06-20 02:50:00,
2013-06-19 22:10:00,70.4,68.0,29.98,North,355,0.0,0.0,92,0.00,,,0.00,0,Wunderground v.1.15,2013-06-20 03:10:00,
2013-06-19 22:20:00,70.1,67.7,29.98,North,355,0.0,0.0,92,0.00,,,0.00,0,Wunderground v.1.15,2013-06-20 03:20:00,
2013-06-19 22:30:00,69.8,67.4,29.98,North,355,0.0,0.0,92,0.00,,,0.00,0,Wunderground v.1.15,2013-06-20 03:30:00,
2013-06-19 22:40:00,69.7,67.6,29.98,North,355,0.0,0.0,93,0.00,,,0.00,0,Wunderground v.1.15,2013-06-20 03:40:00,
2013-06-19 22:50:00,69.5,67.4,29.98,North,355,0.0,0.0,93,0.00,,,0.00,0,Wunderground v.1.15,2013-06-20 03:50:00,
2013-06-19 23:00:00,69.3,67.5,29.98,North,355,0.0,0.0,94,0.00,,,0.00,0,Wunderground v.1.15,2013-06-20 04:00:00,
2013-06-19 23:10:00,69.2,67.4,29.98,North,355,0.0,0.0,94,0.00,,,0.00,0,Wunderground v.1.15,2013-06-20 04:10:00,
2013-06-19 23:20:00,69.0,67.2,29.99,North,355,0.0,0.0,94,0.00,,,0.00,0,Wunderground v.1.15,2013-06-20 04:20:00,
2013-06-19 23:30:00,68.8,67.0,29.99,North,355,0.0,0.0,94,0.00,,,0.00,0,Wunderground v.1.15,2013-06-20 04:30:00,
2013-06-19 23:40:00,68.6,66.8,29.99,North,355,0.0,0.0,94,0.00,,,0.00,0,Wunderground v.1.15,2013-06-20 04:40:00,
2013-06-19 23:50:00,68.3,66.5,29.99,North,355,0.0,0.0,94,0.00,,,0.00,0,Wunderground v.1.15,2013-06-20 04:50:00,